PST,Max TemperatureF,Mean TemperatureF,Min TemperatureF,Max Dew PointF,MeanDew PointF,Min DewpointF,Max Humidity, Mean Humidity, Min Humidity, Max Sea Level PressureIn, Mean Sea Level PressureIn, Min Sea Level PressureIn, Max VisibilityMiles, Mean VisibilityMiles, Min VisibilityMiles, Max Wind SpeedMPH, Mean Wind SpeedMPH, Max Gust SpeedMPH,PrecipitationIn, CloudCover, Events, WindDirDegrees
2012-12-1,69,65,61,62,59,56,94,82,63,30.17,30.12,30.08,10,6,0,15,8,,0.00,6,Fog-Rain,326
2012-12-2,69,66,61,59,57,54,84,75,61,30.15,30.11,30.07,10,9,5,16,5,,0.00,6,,334
2012-12-3,68,64,60,60,58,56,88,83,70,30.18,30.15,30.12,10,8,6,9,4,,0.00,7,,290
2012-12-4,68,64,61,58,57,56,87,78,65,30.22,30.17,30.12,10,7,3,15,9,24,0.00,7,,336
2012-12-5,66,62,59,57,55,53,83,77,68,30.14,30.08,30.02,10,6,3,9,5,,0.00,6,,319
2012-12-6,69,64,60,56,55,53,83,73,63,30.01,29.94,29.87,10,8,5,9,3,,0.00,6,,344
2012-12-7,64,60,57,57,55,54,88,79,68,29.98,29.93,29.89,6,4,2,12,4,,0.00,6,,339
2012-12-8,66,62,57,55,54,52,88,78,63,29.99,29.95,29.91,6,4,1,7,2,,0.00,6,,281
2012-12-9,64,59,54,53,51,49,84,74,63,30.12,30.04,29.98,5,4,2,7,3,,0.00,5,,319
2012-12-10,71,62,52,56,50,40,87,72,32,30.13,30.08,30.04,10,5,4,10,3,,0.00,1,,331
2012-12-11,72,62,51,56,49,34,90,71,26,30.05,30.00,29.95,10,8,4,10,2,,0.01,3,,335
2012-12-12,66,58,51,55,52,46,87,74,56,29.99,29.92,29.87,10,8,6,15,6,25,0.00,6,,155
2012-12-13,62,60,57,54,50,39,88,73,49,29.85,29.80,29.75,10,7,1,22,11,30,1.25,7,Rain,243
2012-12-14,63,58,53,47,42,37,80,59,42,30.00,29.91,29.79,10,10,7,16,11,22,0.08,7,Rain,265
2012-12-15,61,57,53,50,45,39,86,67,44,30.12,30.02,29.92,10,9,4,17,7,,0.18,6,Rain,1
2012-12-16,62,58,53,54,49,45,88,72,58,30.18,30.14,30.11,10,9,4,15,7,20,0.00,7,Rain,130
2012-12-17,64,60,57,56,54,51,94,80,63,30.16,30.10,30.02,10,7,2,8,3,,0.04,7,Rain,174
2012-12-18,63,60,55,55,49,27,83,69,33,30.01,29.92,29.86,10,8,5,25,10,34,0.02,6,Rain,261
2012-12-19,59,52,46,35,29,25,54,40,27,30.23,30.17,30.03,10,10,10,26,11,33,0.00,0,,1
2012-12-20,68,56,45,42,32,16,71,45,15,30.20,30.13,30.06,10,10,8,12,3,,0.00,1,,348
2012-12-21,62,52,43,45,40,32,80,62,35,30.12,30.07,30.04,10,10,7,8,1,,0.00,4,,317
2012-12-22,63,54,45,47,44,38,83,69,52,30.21,30.14,30.06,10,8,7,7,1,,0.00,3,,332
2012-12-23,63,56,48,51,46,40,86,71,50,30.23,30.17,30.12,10,9,7,10,2,,0.00,6,,319
2012-12-24,62,57,52,57,51,47,90,82,75,30.14,30.09,30.01,9,7,2,13,4,,0.14,6,Rain,175
2012-12-25,54,54,53,48,48,47,82,81,80,30.03,30.02,30.02,9,8,7,4,2,,0.00,6,,120
2012-12-26,64,58,52,53,46,43,82,68,53,30.02,29.99,29.96,10,9,5,16,5,,0.04,6,Rain,274
2012-12-27,62,56,50,47,44,39,77,63,44,30.11,30.01,29.96,10,9,7,17,10,,0.01,4,Rain,309
2012-12-28,64,54,45,42,39,36,74,60,35,30.16,30.11,30.06,10,10,9,10,3,,0.00,1,,72
2012-12-29,62,55,48,49,42,33,86,65,49,30.09,30.03,29.97,10,9,5,14,6,22,0.07,6,Rain,142
2012-12-30,57,52,46,49,44,40,86,74,60,30.07,29.98,29.92,10,9,6,18,4,25,0.10,5,Rain-Thunderstorm,47
2012-12-31,60,51,42,42,38,34,82,64,38,30.25,30.19,30.09,10,9,7,9,2,,0.00,1,,227